Tres Forquilhas, Brazil
Current Conditions -  °F | °C
As of 3:00 PM on Monday 24 Nov 2014 (Local Time) from SBCO Reporting Station
Clear Clear  
Wind Chill: 91°   Ceiling: Unl
Heat Index: 93°   Visibility: 6mi
Dew Point: 64°   Wind: 9mph
Humidity: 41%   Direction: 320°NW
Pressure: 29.83"   Gusts: NA
Location:  29.59°S, 50.07°W
Report Text: SBCO 241700Z 32008KT CAVOK 33/18 Q1010
Loading
Personal Weather Stations






























Interactive Weather Map New forecast layout! Learn more

10-Day Weather Forecast

Advertisements
Track Severe Weather on mobile